Time;durP1;ratioP1;P1;durP2;ratioP2;P2;SDS_P1;SDS_P2;PMS_P1;PMS_P2;Temp;Humidity;BMP_temperature;BMP_pressure;BME280_temperature;BME280_humidity;BME280_pressure;Samples;Min_cycle;Max_cycle;Signal;HPM_P1;HPM_P2
2023/04/10 00:01:31;;;;;;;1.73;1.23;;;8.90;72.30;;;;;;5135868;27;20035;-68
2023/04/10 00:03:56;;;;;;;1.77;1.10;;;8.90;72.30;;;;;;5135883;27;20035;-68
2023/04/10 00:06:23;;;;;;;1.95;1.27;;;8.80;72.30;;;;;;5153717;27;20038;-68
2023/04/10 00:08:49;;;;;;;1.15;1.00;;;8.80;72.40;;;;;;5153422;27;20034;-68
2023/04/10 00:11:15;;;;;;;1.58;1.10;;;8.80;72.40;;;;;;5153504;27;20035;-69
2023/04/10 00:13:40;;;;;;;1.30;1.20;;;8.80;72.50;;;;;;5117911;27;20141;-69
2023/04/10 00:16:06;;;;;;;1.38;1.10;;;8.80;72.50;;;;;;5153584;27;20041;-68
2023/04/10 00:18:32;;;;;;;2.03;1.20;;;8.80;72.60;;;;;;5135144;27;20488;-69
2023/04/10 00:20:57;;;;;;;1.20;0.90;;;8.80;72.70;;;;;;5153747;27;20043;-69
2023/04/10 00:23:23;;;;;;;1.80;1.10;;;8.70;72.60;;;;;;5134960;27;20050;-68
2023/04/10 00:25:49;;;;;;;1.98;1.10;;;8.70;72.70;;;;;;5153398;27;20030;-69
2023/04/10 00:28:16;;;;;;;1.23;0.90;;;8.70;72.70;;;;;;5153355;27;20027;-69
2023/04/10 00:30:41;;;;;;;0.95;0.88;;;8.60;72.70;;;;;;5153412;27;20047;-69
2023/04/10 00:33:07;;;;;;;1.15;0.80;;;8.70;72.80;;;;;;5134805;27;20071;-69
2023/04/10 00:35:32;;;;;;;1.45;0.98;;;8.60;73.40;;;;;;5153365;27;20043;-68
2023/04/10 00:37:58;;;;;;;1.63;0.90;;;8.60;72.90;;;;;;5153501;27;20046;-69
2023/04/10 00:40:24;;;;;;;1.30;0.98;;;8.60;72.90;;;;;;5134712;27;20042;-69
2023/04/10 00:42:50;;;;;;;1.33;0.93;;;8.60;72.90;;;;;;5153112;27;20394;-69
2023/04/10 00:45:15;;;;;;;0.98;0.88;;;8.60;73.00;;;;;;5153014;27;20493;-69
2023/04/10 00:47:41;;;;;;;0.93;0.80;;;8.60;73.00;;;;;;5153147;27;20043;-69
2023/04/10 00:50:07;;;;;;;2.50;1.17;;;8.50;73.00;;;;;;5152980;27;20047;-69
2023/04/10 00:52:33;;;;;;;1.35;1.00;;;8.60;73.20;;;;;;5153112;27;20050;-69
2023/04/10 00:54:58;;;;;;;0.98;0.80;;;8.50;73.10;;;;;;5153000;27;20049;-69
2023/04/10 00:57:25;;;;;;;1.20;0.70;;;8.60;73.20;;;;;;5134526;27;20047;-69
2023/04/10 00:59:52;;;;;;;0.65;0.63;;;8.60;73.20;;;;;;5134712;27;20439;-68
2023/04/10 01:02:18;;;;;;;1.83;0.95;;;8.50;73.10;;;;;;5134303;27;20365;-70
2023/04/10 01:04:45;;;;;;;1.17;0.85;;;8.50;73.10;;;;;;5152857;27;20114;-69
2023/04/10 01:07:32;;;;;;;0.90;0.82;;;8.50;73.10;;;;;;5152770;27;20031;-68
2023/04/10 01:10:16;;;;;;;1.48;0.90;;;8.50;73.10;;;;;;5152694;27;20043;-70
2023/04/10 01:13:12;;;;;;;0.75;0.70;;;8.50;73.10;;;;;;5152982;27;20129;-70
2023/04/10 01:16:04;;;;;;;0.60;0.60;;;8.50;73.10;;;;;;5152567;27;20423;-70
2023/04/10 01:18:45;;;;;;;1.08;0.70;;;8.50;73.10;;;;;;5152801;27;20046;-69
2023/04/10 01:21:12;;;;;;;1.30;0.75;;;8.50;73.20;;;;;;5152671;27;20074;-70
2023/04/10 01:24:06;;;;;;;0.57;0.50;;;8.40;73.20;;;;;;5154456;27;20075;-70
2023/04/10 01:26:55;;;;;;;1.05;0.75;;;8.40;73.20;;;;;;5156336;27;20103;-68
2023/04/10 01:29:24;;;;;;;1.00;0.70;;;8.40;73.30;;;;;;5156063;27;20034;-68
2023/04/10 01:31:56;;;;;;;0.73;0.63;;;8.40;73.30;;;;;;5138051;27;20477;-67
2023/04/10 01:34:31;;;;;;;0.70;0.70;;;8.40;73.30;;;;;;5155970;27;20039;-70
2023/04/10 01:37:01;;;;;;;1.00;0.80;;;8.40;73.30;;;;;;5138306;27;20039;-69
2023/04/10 01:39:28;;;;;;;1.30;0.95;;;8.40;73.40;;;;;;5155842;27;20034;-67
2023/04/10 01:41:56;;;;;;;1.20;0.73;;;8.40;73.40;;;;;;5137345;27;20490;-67
2023/04/10 01:44:26;;;;;;;0.75;0.70;;;8.40;73.40;;;;;;5155936;27;20062;-67
2023/04/10 01:46:55;;;;;;;1.25;0.70;;;8.40;73.40;;;;;;5155913;27;20482;-67
2023/04/10 01:49:22;;;;;;;0.63;0.63;;;8.40;73.40;;;;;;5156183;27;20030;-67
2023/04/10 01:51:49;;;;;;;1.20;0.82;;;8.40;73.40;;;;;;5155776;27;20035;-68
2023/04/10 01:54:16;;;;;;;2.20;1.08;;;8.40;73.40;;;;;;5155917;27;20038;-67
2023/04/10 01:56:43;;;;;;;1.27;0.90;;;8.40;73.50;;;;;;5155692;27;20100;-69
2023/04/10 01:59:08;;;;;;;1.17;0.60;;;8.40;73.50;;;;;;5102897;27;20038;-68
2023/04/10 02:01:34;;;;;;;1.17;0.77;;;8.40;73.60;;;;;;5155481;27;20038;-68
2023/04/10 02:04:00;;;;;;;0.75;0.70;;;8.40;73.60;;;;;;5155552;27;20042;-67
2023/04/10 02:06:40;;;;;;;1.35;0.88;;;8.30;73.50;;;;;;5155846;27;20038;-68
2023/04/10 02:09:20;;;;;;;1.13;0.70;;;8.30;73.50;;;;;;5155828;27;20114;-68
2023/04/10 02:11:57;;;;;;;1.65;1.00;;;8.30;73.40;;;;;;5155557;27;20077;-68
2023/04/10 02:14:27;;;;;;;1.15;0.73;;;8.50;73.50;;;;;;5155856;27;20042;-68
2023/04/10 02:16:53;;;;;;;0.73;0.60;;;8.40;73.50;;;;;;5155317;27;20042;-68
2023/04/10 02:19:21;;;;;;;0.88;0.70;;;8.30;73.40;;;;;;5155377;27;20054;-68
2023/04/10 02:21:47;;;;;;;0.65;0.57;;;8.30;73.40;;;;;;5155106;27;20034;-68
2023/04/10 02:24:13;;;;;;;0.73;0.60;;;8.40;73.50;;;;;;5136509;27;20516;-68
2023/04/10 02:26:50;;;;;;;1.10;0.77;;;8.40;73.50;;;;;;5155325;27;20122;-68
2023/04/10 02:29:17;;;;;;;1.10;0.70;;;8.30;73.60;;;;;;5155656;27;20047;-68
2023/04/10 02:31:43;;;;;;;0.95;0.70;;;8.30;73.70;;;;;;5155439;27;20030;-67
2023/04/10 02:34:09;;;;;;;0.98;0.70;;;8.30;73.70;;;;;;5155369;27;20516;-68
2023/04/10 02:36:37;;;;;;;1.20;0.80;;;8.20;73.80;;;;;;5154757;27;20087;-68
2023/04/10 02:39:03;;;;;;;0.80;0.60;;;8.10;73.90;;;;;;5136865;27;20490;-68
2023/04/10 02:41:29;;;;;;;0.85;0.73;;;8.10;74.00;;;;;;5136473;27;20042;-68
2023/04/10 02:43:54;;;;;;;1.05;0.80;;;8.00;74.00;;;;;;5155014;27;20035;-68
2023/04/10 02:46:20;;;;;;;1.45;0.80;;;8.10;74.20;;;;;;5155279;27;20035;-68
2023/04/10 02:48:46;;;;;;;1.25;0.90;;;8.10;74.30;;;;;;5154803;27;20125;-68
2023/04/10 02:51:12;;;;;;;1.10;0.80;;;8.10;74.30;;;;;;5155437;27;20066;-68
2023/04/10 02:53:38;;;;;;;1.25;0.88;;;8.00;74.30;;;;;;5154834;27;20133;-68
2023/04/10 02:56:06;;;;;;;1.17;0.75;;;8.00;74.30;;;;;;5154842;27;20113;-67
2023/04/10 02:58:32;;;;;;;1.05;0.70;;;8.00;74.30;;;;;;5155211;27;20038;-68
2023/04/10 03:00:58;;;;;;;0.77;0.77;;;8.00;74.40;;;;;;5136221;27;20049;-68
2023/04/10 03:03:24;;;;;;;1.10;0.70;;;8.00;74.40;;;;;;5136025;27;20072;-68
2023/04/10 03:05:50;;;;;;;0.73;0.68;;;8.00;74.40;;;;;;5154513;27;20038;-68
2023/04/10 03:08:16;;;;;;;1.45;0.80;;;8.00;74.50;;;;;;5154486;27;20035;-68
2023/04/10 03:10:44;;;;;;;1.08;0.80;;;7.90;74.50;;;;;;5154865;27;20039;-68
2023/04/10 03:13:09;;;;;;;1.17;0.88;;;7.90;74.50;;;;;;5135867;27;20504;-68
2023/04/10 03:15:35;;;;;;;1.00;0.80;;;7.90;74.50;;;;;;5154334;27;20045;-68
2023/04/10 03:18:01;;;;;;;1.10;0.80;;;7.90;74.50;;;;;;5154487;27;20047;-68
2023/04/10 03:20:27;;;;;;;1.27;1.00;;;7.90;74.50;;;;;;5154128;27;20049;-68
2023/04/10 03:22:52;;;;;;;0.82;0.70;;;7.80;74.50;;;;;;5154341;27;20051;-68
2023/04/10 03:25:18;;;;;;;1.15;0.80;;;7.90;74.60;;;;;;5135527;27;20394;-67
2023/04/10 03:27:44;;;;;;;1.30;0.82;;;7.90;74.60;;;;;;5154673;27;20035;-68
2023/04/10 03:30:20;;;;;;;1.05;0.85;;;7.90;74.70;;;;;;5137292;27;20130;-68
2023/04/10 03:32:45;;;;;;;1.00;0.80;;;7.80;74.60;;;;;;5154315;27;20046;-68
2023/04/10 03:35:11;;;;;;;0.70;0.60;;;7.80;74.60;;;;;;5154800;27;20039;-68
2023/04/10 03:37:37;;;;;;;0.93;0.70;;;7.80;74.70;;;;;;5154423;27;20142;-68
2023/04/10 03:40:06;;;;;;;1.02;0.80;;;7.80;74.80;;;;;;5154027;27;20478;-68
2023/04/10 03:42:32;;;;;;;1.15;0.70;;;7.70;74.70;;;;;;5154047;27;20501;-68
2023/04/10 03:44:57;;;;;;;1.27;0.90;;;7.70;74.80;;;;;;5135543;27;20039;-67
2023/04/10 03:47:23;;;;;;;0.88;0.63;;;7.80;74.80;;;;;;5154064;27;20509;-68
2023/04/10 03:49:49;;;;;;;0.93;0.70;;;7.70;74.80;;;;;;5154213;27;20574;-67
2023/04/10 03:52:14;;;;;;;0.93;0.70;;;7.70;74.90;;;;;;5135307;27;20046;-68
2023/04/10 03:54:41;;;;;;;1.35;0.75;;;7.70;74.90;;;;;;5135312;27;20043;-68
2023/04/10 03:57:06;;;;;;;1.10;0.85;;;7.70;74.90;;;;;;5135368;27;20042;-68
2023/04/10 03:59:32;;;;;;;0.80;0.70;;;7.60;74.90;;;;;;5135623;27;20042;-69
2023/04/10 04:01:58;;;;;;;0.68;0.60;;;7.60;75.00;;;;;;5135866;27;20067;-69
2023/04/10 04:04:24;;;;;;;1.08;0.70;;;7.60;75.00;;;;;;5154446;27;20117;-69
2023/04/10 04:06:50;;;;;;;1.05;0.70;;;7.60;75.10;;;;;;5135541;27;20041;-69
2023/04/10 04:09:16;;;;;;;1.30;0.85;;;7.50;75.00;;;;;;5153827;27;20125;-69
2023/04/10 04:11:41;;;;;;;1.85;0.93;;;7.60;75.10;;;;;;5135223;27;20043;-69
2023/04/10 04:14:07;;;;;;;1.60;0.90;;;7.50;75.10;;;;;;5153944;27;20448;-69
2023/04/10 04:16:33;;;;;;;1.20;0.68;;;7.50;75.20;;;;;;5152132;27;20039;-69
2023/04/10 04:18:58;;;;;;;1.58;0.85;;;7.50;75.20;;;;;;5153793;27;20039;-69
2023/04/10 04:21:24;;;;;;;1.42;1.00;;;7.50;75.30;;;;;;5153849;27;20084;-69
2023/04/10 04:23:50;;;;;;;0.95;0.70;;;7.40;75.30;;;;;;5154303;27;20378;-69
2023/04/10 04:26:15;;;;;;;1.38;0.90;;;7.40;75.40;;;;;;5153778;27;20062;-69
2023/04/10 04:28:41;;;;;;;1.40;0.77;;;7.50;75.40;;;;;;5154272;27;20082;-69
2023/04/10 04:31:07;;;;;;;0.93;0.77;;;7.40;75.40;;;;;;5153823;27;20035;-69
2023/04/10 04:33:32;;;;;;;0.70;0.70;;;7.40;75.40;;;;;;5135624;27;20050;-69
2023/04/10 04:35:58;;;;;;;1.08;0.80;;;7.40;75.50;;;;;;5154083;27;20161;-69
2023/04/10 04:38:24;;;;;;;1.20;0.90;;;7.30;75.50;;;;;;5153614;27;20039;-69
2023/04/10 04:40:49;;;;;;;1.10;0.80;;;7.30;75.50;;;;;;5153919;27;20133;-69
2023/04/10 04:43:15;;;;;;;1.10;0.80;;;7.30;75.60;;;;;;5153585;27;20070;-69
2023/04/10 04:45:40;;;;;;;1.10;0.70;;;7.30;75.60;;;;;;5153561;27;20576;-69
2023/04/10 04:48:06;;;;;;;0.77;0.60;;;7.40;75.60;;;;;;5135154;27;20035;-69
2023/04/10 04:50:32;;;;;;;0.85;0.70;;;7.20;75.60;;;;;;5134829;27;20481;-70
2023/04/10 04:52:59;;;;;;;1.10;0.65;;;7.20;75.60;;;;;;5153600;27;20073;-69
2023/04/10 04:55:24;;;;;;;0.90;0.70;;;7.30;75.70;;;;;;5153645;27;20091;-69
2023/04/10 04:57:50;;;;;;;1.10;0.68;;;7.20;75.60;;;;;;5154418;27;20038;-69
2023/04/10 05:00:16;;;;;;;0.93;0.60;;;7.30;75.70;;;;;;5157009;27;20035;-69
2023/04/10 05:02:41;;;;;;;1.08;0.80;;;7.30;75.70;;;;;;5138408;27;20049;-69
2023/04/10 05:05:07;;;;;;;0.90;0.80;;;7.20;75.60;;;;;;5156882;27;20043;-69
2023/04/10 05:07:33;;;;;;;1.55;0.95;;;7.30;75.60;;;;;;5156845;27;20431;-70
2023/04/10 05:09:59;;;;;;;1.83;1.02;;;7.40;75.60;;;;;;5157075;27;20490;-69
2023/04/10 05:12:25;;;;;;;0.98;0.68;;;7.30;75.50;;;;;;5156707;27;20404;-69
2023/04/10 05:14:50;;;;;;;0.95;0.73;;;7.40;75.50;;;;;;5138240;27;20083;-69
2023/04/10 05:17:16;;;;;;;1.58;0.70;;;7.40;75.50;;;;;;5156679;27;20050;-69
2023/04/10 05:19:42;;;;;;;1.08;0.65;;;7.40;75.40;;;;;;5138744;27;20055;-69
2023/04/10 05:22:07;;;;;;;0.82;0.73;;;7.40;75.30;;;;;;5156432;27;20030;-69
2023/04/10 05:24:33;;;;;;;1.10;0.80;;;7.40;75.20;;;;;;5156926;27;20534;-69
2023/04/10 05:26:59;;;;;;;1.05;0.90;;;7.50;75.20;;;;;;5156373;27;20046;-69
2023/04/10 05:29:25;;;;;;;0.85;0.70;;;7.50;75.20;;;;;;5156247;27;20074;-69
2023/04/10 05:31:51;;;;;;;0.90;0.70;;;7.50;75.10;;;;;;5120787;27;20046;-70
2023/04/10 05:34:17;;;;;;;1.20;0.65;;;7.60;75.10;;;;;;5138050;27;20046;-70
2023/04/10 05:36:42;;;;;;;0.90;0.80;;;7.60;75.10;;;;;;5156977;27;20075;-69
2023/04/10 05:39:08;;;;;;;1.67;1.10;;;7.60;75.00;;;;;;5137914;27;20063;-69
2023/04/10 05:41:34;;;;;;;1.20;0.90;;;7.60;75.10;;;;;;5156253;27;20504;-69
2023/04/10 05:44:00;;;;;;;1.02;0.70;;;7.60;75.00;;;;;;5156169;27;20031;-69
2023/04/10 05:46:25;;;;;;;1.05;0.88;;;7.70;74.90;;;;;;5156609;27;20385;-69
2023/04/10 05:48:52;;;;;;;0.95;0.85;;;7.70;74.80;;;;;;5156142;27;20129;-69
2023/04/10 05:51:17;;;;;;;1.25;0.95;;;7.70;74.80;;;;;;5156091;27;20047;-69
2023/04/10 05:53:43;;;;;;;1.52;0.90;;;7.70;74.80;;;;;;5156095;27;20037;-69
2023/04/10 05:56:09;;;;;;;1.27;0.90;;;7.80;74.70;;;;;;5137425;27;20122;-69
2023/04/10 05:58:35;;;;;;;0.98;0.88;;;7.90;74.70;;;;;;5156483;27;20035;-69
2023/04/10 06:01:00;;;;;;;1.10;0.85;;;8.00;74.70;;;;;;5137594;27;20129;-69
2023/04/10 06:03:26;;;;;;;1.40;1.00;;;8.00;74.60;;;;;;5155922;27;20496;-69
2023/04/10 06:05:52;;;;;;;1.35;0.80;;;8.10;74.60;;;;;;5105403;27;20486;-69
2023/04/10 06:08:18;;;;;;;1.20;0.90;;;8.10;74.50;;;;;;5155982;27;20427;-70
2023/04/10 06:10:45;;;;;;;1.52;1.00;;;8.10;74.40;;;;;;5155336;27;20053;-69
2023/04/10 06:13:11;;;;;;;1.42;1.00;;;8.20;74.30;;;;;;5155985;27;20045;-69
2023/04/10 06:15:37;;;;;;;1.63;1.00;;;8.30;74.30;;;;;;5155971;27;20039;-69
2023/04/10 06:18:02;;;;;;;1.20;0.80;;;8.30;74.10;;;;;;5155661;27;20495;-69
2023/04/10 06:20:28;;;;;;;1.23;0.90;;;8.40;74.10;;;;;;5155947;27;20038;-69
2023/04/10 06:22:53;;;;;;;1.38;0.95;;;8.50;74.10;;;;;;5137051;27;20497;-69
2023/04/10 06:25:19;;;;;;;1.08;0.70;;;8.60;74.00;;;;;;5155404;27;20050;-69
2023/04/10 06:27:45;;;;;;;1.55;0.95;;;8.60;73.90;;;;;;5155354;27;20050;-69
2023/04/10 06:30:11;;;;;;;1.27;0.80;;;8.70;73.90;;;;;;5155710;27;20544;-69
2023/04/10 06:32:36;;;;;;;0.98;0.80;;;8.80;73.80;;;;;;5155921;27;20031;-70
2023/04/10 06:35:02;;;;;;;1.08;0.80;;;8.90;73.70;;;;;;5155474;27;20046;-69
2023/04/10 06:37:31;;;;;;;0.85;0.80;;;9.00;73.70;;;;;;5155301;27;20125;-69
2023/04/10 06:40:06;;;;;;;1.15;1.00;;;9.00;73.50;;;;;;5155294;27;20122;-69
2023/04/10 06:42:32;;;;;;;1.35;0.90;;;9.10;73.40;;;;;;5155155;27;20070;-69
2023/04/10 06:44:58;;;;;;;1.90;1.02;;;9.20;73.30;;;;;;5155336;27;20569;-70
2023/04/10 06:47:23;;;;;;;1.67;1.00;;;9.30;73.30;;;;;;5155688;27;20039;-69
2023/04/10 06:49:49;;;;;;;1.45;0.95;;;9.40;73.20;;;;;;5136426;27;20047;-69
2023/04/10 06:52:15;;;;;;;1.80;1.10;;;9.60;73.20;;;;;;5155260;27;20031;-69
2023/04/10 06:54:41;;;;;;;2.20;1.20;;;9.60;73.10;;;;;;5154967;27;20382;-69
2023/04/10 06:57:06;;;;;;;1.65;1.10;;;9.60;72.90;;;;;;5137078;27;20053;-69
2023/04/10 06:59:34;;;;;;;1.35;0.98;;;9.60;72.90;;;;;;5155325;27;20038;-69
2023/04/10 07:02:00;;;;;;;1.20;1.00;;;9.80;72.80;;;;;;5153760;27;20133;-69
2023/04/10 07:04:26;;;;;;;1.63;1.00;;;9.80;72.70;;;;;;5154977;27;20035;-69
2023/04/10 07:06:51;;;;;;;1.52;1.10;;;10.00;73.40;;;;;;5154914;27;20494;-69
2023/04/10 07:09:17;;;;;;;1.85;1.10;;;10.20;72.70;;;;;;5154757;27;20429;-69
2023/04/10 07:11:43;;;;;;;1.40;1.00;;;10.20;72.60;;;;;;5154857;27;20038;-69
2023/04/10 07:14:08;;;;;;;1.20;1.00;;;10.30;72.40;;;;;;5155067;27;20034;-69
2023/04/10 07:16:34;;;;;;;1.52;1.13;;;10.40;72.40;;;;;;5154753;27;20031;-69
2023/04/10 07:18:59;;;;;;;1.35;0.98;;;10.60;72.40;;;;;;5155164;27;20087;-69
2023/04/10 07:21:26;;;;;;;2.00;1.10;;;10.60;72.20;;;;;;5135102;27;20058;-69
2023/04/10 07:23:52;;;;;;;1.67;1.10;;;10.70;72.10;;;;;;5155114;27;20035;-69
2023/04/10 07:26:17;;;;;;;2.00;1.30;;;10.80;72.00;;;;;;5136692;27;20034;-69
2023/04/10 07:28:43;;;;;;;1.77;1.30;;;10.90;72.00;;;;;;5154635;27;20413;-69
2023/04/10 07:31:10;;;;;;;1.02;0.93;;;10.90;71.80;;;;;;5154182;27;20143;-69
2023/04/10 07:33:36;;;;;;;1.10;0.90;;;10.90;71.70;;;;;;5154486;27;20133;-69
2023/04/10 07:36:02;;;;;;;1.27;0.98;;;11.10;71.80;;;;;;5154277;27;20042;-70
2023/04/10 07:38:28;;;;;;;1.52;1.08;;;11.10;71.70;;;;;;5154577;27;20520;-69
2023/04/10 07:40:56;;;;;;;1.50;1.00;;;11.20;71.80;;;;;;5154525;27;20038;-69
2023/04/10 07:43:22;;;;;;;1.90;1.38;;;11.20;71.70;;;;;;5152672;27;20055;-69
2023/04/10 07:45:47;;;;;;;1.10;0.93;;;11.20;71.80;;;;;;5154626;27;20046;-70
2023/04/10 07:48:13;;;;;;;1.30;0.90;;;11.30;71.70;;;;;;5154287;27;20034;-69
2023/04/10 07:50:39;;;;;;;1.55;0.95;;;11.40;71.70;;;;;;5154483;27;20066;-69
2023/04/10 07:53:06;;;;;;;1.70;1.10;;;11.50;71.70;;;;;;5154123;27;20051;-69
2023/04/10 07:55:37;;;;;;;1.88;1.23;;;11.60;71.70;;;;;;5154162;27;20050;-70
2023/04/10 07:58:03;;;;;;;1.98;1.23;;;11.60;71.40;;;;;;5136185;27;20073;-70
2023/04/10 08:00:29;;;;;;;2.20;1.40;;;11.70;71.40;;;;;;5154173;27;20066;-69
2023/04/10 08:02:54;;;;;;;1.67;1.10;;;11.70;71.40;;;;;;5154410;27;20565;-69
2023/04/10 08:05:20;;;;;;;1.75;1.25;;;11.70;71.50;;;;;;5153857;27;20062;-69
2023/04/10 08:07:46;;;;;;;1.83;1.30;;;11.90;71.50;;;;;;5135975;27;20363;-69
2023/04/10 08:10:12;;;;;;;1.88;1.35;;;11.90;71.20;;;;;;5153904;27;20039;-69
2023/04/10 08:12:37;;;;;;;2.15;1.40;;;12.10;71.20;;;;;;5153692;27;20063;-69
2023/04/10 08:15:03;;;;;;;3.17;1.30;;;12.30;70.90;;;;;;5154005;27;20537;-69
2023/04/10 08:17:29;;;;;;;1.40;1.20;;;12.50;70.80;;;;;;5153920;27;20052;-69
2023/04/10 08:19:55;;;;;;;1.80;1.38;;;12.60;70.50;;;;;;5135612;27;20051;-70
2023/04/10 08:22:21;;;;;;;1.67;1.30;;;12.70;70.40;;;;;;5135708;27;20091;-69
2023/04/10 08:24:46;;;;;;;1.60;1.10;;;13.00;70.10;;;;;;5153995;27;20035;-70
2023/04/10 08:27:14;;;;;;;1.67;1.33;;;13.10;69.80;;;;;;5153622;27;20039;-69
2023/04/10 08:29:40;;;;;;;1.85;1.30;;;13.30;69.70;;;;;;5153561;27;20072;-69
2023/04/10 08:32:06;;;;;;;1.50;1.23;;;13.40;69.50;;;;;;5155280;27;20059;-69
2023/04/10 08:34:32;;;;;;;3.40;1.48;;;13.40;69.40;;;;;;5157327;27;20133;-69
2023/04/10 08:36:58;;;;;;;1.95;1.50;;;13.50;69.40;;;;;;5157286;27;20038;-69
2023/04/10 08:39:23;;;;;;;1.52;1.20;;;13.60;69.40;;;;;;5157299;27;20042;-69
2023/04/10 08:41:49;;;;;;;1.80;1.40;;;13.60;69.40;;;;;;5157369;27;20100;-69
2023/04/10 08:44:15;;;;;;;1.33;1.08;;;13.70;69.50;;;;;;5157301;27;20047;-69
2023/04/10 08:46:43;;;;;;;1.60;1.10;;;13.70;69.50;;;;;;5138550;27;20091;-69
2023/04/10 08:49:14;;;;;;;1.85;1.33;;;13.70;69.50;;;;;;5156985;27;20037;-69
2023/04/10 08:51:45;;;;;;;1.55;1.20;;;13.70;69.60;;;;;;5156986;27;20045;-67
2023/04/10 08:54:20;;;;;;;1.20;0.95;;;13.90;69.60;;;;;;5157083;27;20401;-69
2023/04/10 08:56:50;;;;;;;1.30;1.10;;;14.00;69.50;;;;;;5139005;27;20038;-69
2023/04/10 08:59:16;;;;;;;1.37;1.07;;;14.10;69.40;;;;;;5157458;27;20039;-69
2023/04/10 09:01:42;;;;;;;1.25;1.00;;;14.20;69.30;;;;;;5138392;27;20275;-69
2023/04/10 09:04:10;;;;;;;1.38;1.20;;;14.30;69.20;;;;;;5156806;27;20039;-69
2023/04/10 09:06:36;;;;;;;1.85;1.30;;;14.40;69.10;;;;;;5156814;27;20457;-70
2023/04/10 09:09:01;;;;;;;1.90;1.35;;;14.50;69.10;;;;;;5156850;27;20031;-70
2023/04/10 09:11:55;;;;;;;1.30;1.20;;;14.60;68.90;;;;;;5157234;27;20035;-69
2023/04/10 09:14:24;;;;;;;2.15;1.45;;;14.70;68.60;;;;;;5156546;27;20572;-69
2023/04/10 09:16:51;;;;;;;2.15;1.55;;;14.70;68.60;;;;;;5156491;27;20046;-70
2023/04/10 09:19:30;;;;;;;1.58;1.15;;;14.60;68.90;;;;;;5156933;27;20042;-70
2023/04/10 09:21:56;;;;;;;1.58;1.30;;;14.70;69.10;;;;;;5156446;27;20091;-70
2023/04/10 09:24:23;;;;;;;1.70;1.30;;;14.70;69.00;;;;;;5156542;27;20565;-72
2023/04/10 09:26:49;;;;;;;1.77;1.30;;;14.70;68.90;;;;;;5156516;27;20055;-70
2023/04/10 09:29:15;;;;;;;1.80;1.45;;;14.70;69.00;;;;;;5156379;27;20046;-70
2023/04/10 09:31:42;;;;;;;1.92;1.45;;;14.80;69.10;;;;;;5156214;27;20117;-70
2023/04/10 09:34:23;;;;;;;1.92;1.42;;;14.80;69.00;;;;;;5137820;27;20042;-72
2023/04/10 09:36:58;;;;;;;2.00;1.40;;;15.00;68.90;;;;;;5156267;27;20056;-70
2023/04/10 09:39:35;;;;;;;1.80;1.38;;;14.90;68.90;;;;;;5156674;27;20119;-70
2023/04/10 09:42:01;;;;;;;1.90;1.20;;;14.90;68.80;;;;;;5156189;27;20493;-67
2023/04/10 09:44:37;;;;;;;1.10;1.00;;;14.90;68.90;;;;;;5155197;27;20053;-71
2023/04/10 09:47:21;;;;;;;1.90;1.33;;;15.00;68.90;;;;;;5156211;27;20038;-70
2023/04/10 09:49:48;;;;;;;1.25;1.08;;;15.00;68.80;;;;;;5137446;27;20401;-69
2023/04/10 09:52:29;;;;;;;1.35;1.13;;;15.00;68.80;;;;;;5137871;27;20091;-69
2023/04/10 09:54:56;;;;;;;1.33;1.00;;;15.10;68.80;;;;;;5155939;27;20066;-69
2023/04/10 09:57:24;;;;;;;1.75;1.10;;;15.00;68.90;;;;;;5156394;27;20035;-70
2023/04/10 09:59:55;;;;;;;1.80;1.30;;;15.00;68.90;;;;;;5155971;27;20046;-70
2023/04/10 10:02:22;;;;;;;1.50;1.10;;;15.00;69.00;;;;;;5137905;27;20050;-67
2023/04/10 10:04:49;;;;;;;1.90;1.10;;;14.90;69.20;;;;;;5137298;27;20042;-70
2023/04/10 10:07:16;;;;;;;1.17;1.08;;;15.00;69.20;;;;;;5156345;27;20039;-70
2023/04/10 10:09:43;;;;;;;1.45;1.10;;;15.10;69.10;;;;;;5155711;27;20042;-70
2023/04/10 10:12:11;;;;;;;1.67;1.15;;;15.20;69.00;;;;;;5156281;27;20401;-71
2023/04/10 10:15:00;;;;;;;1.20;1.10;;;15.20;68.70;;;;;;5156282;27;20087;-70
2023/04/10 10:17:35;;;;;;;1.48;1.10;;;15.30;68.70;;;;;;5155734;27;20067;-70
2023/04/10 10:20:06;;;;;;;1.33;1.10;;;15.30;68.70;;;;;;5155964;27;20421;-70
2023/04/10 10:22:32;;;;;;;1.45;1.25;;;15.50;68.60;;;;;;5155726;27;20047;-69
2023/04/10 10:24:59;;;;;;;1.55;1.02;;;15.40;68.40;;;;;;5137015;27;20553;-67
2023/04/10 10:27:26;;;;;;;1.17;1.00;;;15.50;68.30;;;;;;5155844;27;20039;-69
2023/04/10 10:29:53;;;;;;;1.33;1.00;;;15.60;68.30;;;;;;5156000;27;20061;-70
2023/04/10 10:32:20;;;;;;;1.02;0.93;;;15.70;68.20;;;;;;5155478;27;20087;-70
2023/04/10 10:34:48;;;;;;;1.23;1.10;;;15.70;68.00;;;;;;5155630;27;20070;-69
2023/04/10 10:37:14;;;;;;;2.10;1.13;;;15.70;68.10;;;;;;5119614;27;20176;-67
2023/04/10 10:40:06;;;;;;;1.48;1.20;;;15.60;68.10;;;;;;5155788;27;20111;-70
2023/04/10 10:42:46;;;;;;;1.20;1.10;;;15.60;68.00;;;;;;5155374;27;20119;-67
2023/04/10 10:45:29;;;;;;;2.10;1.10;;;15.70;68.20;;;;;;5155508;27;20035;-68
2023/04/10 10:47:55;;;;;;;1.98;1.40;;;15.70;68.10;;;;;;5135882;27;20054;-67
2023/04/10 10:50:22;;;;;;;1.75;1.27;;;15.90;68.00;;;;;;5136695;27;20489;-70
2023/04/10 10:52:51;;;;;;;1.48;1.20;;;15.90;67.80;;;;;;5155525;27;20125;-69
2023/04/10 10:55:30;;;;;;;1.95;1.40;;;16.00;67.70;;;;;;5155171;27;20514;-69
2023/04/10 10:57:59;;;;;;;1.40;1.20;;;16.00;67.60;;;;;;5136501;27;20389;-70
2023/04/10 11:00:26;;;;;;;1.40;1.10;;;16.00;67.70;;;;;;5155129;27;20035;-70
2023/04/10 11:03:25;;;;;;;1.25;1.08;;;16.20;67.50;;;;;;5155006;27;20145;-70
2023/04/10 11:06:02;;;;;;;1.77;1.25;;;16.30;67.10;;;;;;5120528;27;20450;-70
2023/04/10 11:08:42;;;;;;;1.73;1.20;;;16.40;67.00;;;;;;5154789;27;20485;-70
2023/04/10 11:11:22;;;;;;;1.50;1.02;;;16.60;67.00;;;;;;5155229;27;20043;-70
2023/04/10 11:14:14;;;;;;;1.58;1.10;;;16.70;67.20;;;;;;5154691;27;20043;-70
2023/04/10 11:16:43;;;;;;;1.17;1.00;;;16.80;66.60;;;;;;5141151;27;20121;-70
2023/04/10 11:19:11;;;;;;;2.20;1.40;;;16.80;66.60;;;;;;5155060;27;20046;-70
2023/04/10 11:22:02;;;;;;;1.60;1.40;;;16.80;66.20;;;;;;5153148;27;20031;-70
2023/04/10 11:24:28;;;;;;;2.90;1.88;;;16.80;66.20;;;;;;5154808;27;20524;-70
2023/04/10 11:26:55;;;;;;;2.65;2.00;;;16.80;66.00;;;;;;5154455;27;20378;-70
2023/04/10 11:29:32;;;;;;;2.20;1.60;;;16.90;66.00;;;;;;5154575;27;20490;-70
2023/04/10 11:32:01;;;;;;;2.15;1.75;;;16.90;65.80;;;;;;5154645;27;20114;-69
2023/04/10 11:34:29;;;;;;;2.35;1.70;;;17.00;65.70;;;;;;5154286;27;20038;-68
2023/04/10 11:36:55;;;;;;;1.98;1.52;;;17.00;65.50;;;;;;5154669;27;20066;-70
2023/04/10 11:39:21;;;;;;;1.88;1.45;;;17.10;65.20;;;;;;5154865;27;20066;-68
2023/04/10 11:41:49;;;;;;;2.88;1.90;;;17.30;64.90;;;;;;5154218;27;20033;-69
2023/04/10 11:44:25;;;;;;;3.53;2.00;;;17.30;64.50;;;;;;5154232;27;20031;-70
2023/04/10 11:46:51;;;;;;;2.53;1.80;;;17.20;64.40;;;;;;5154196;27;20090;-70
2023/04/10 11:49:20;;;;;;;2.40;1.60;;;17.30;64.60;;;;;;5153971;27;20042;-70
2023/04/10 11:51:51;;;;;;;2.25;1.65;;;17.30;64.70;;;;;;5154507;27;20516;-67
2023/04/10 11:54:20;;;;;;;2.10;1.60;;;17.40;64.50;;;;;;5134565;27;20083;-67
2023/04/10 11:57:04;;;;;;;2.00;1.50;;;17.40;64.40;;;;;;5152934;27;20461;-68
2023/04/10 11:59:31;;;;;;;2.03;1.50;;;17.40;64.50;;;;;;5152186;27;20059;-68
2023/04/10 12:02:08;;;;;;;1.45;1.33;;;17.40;64.60;;;;;;5154178;27;20042;-70
2023/04/10 12:04:34;;;;;;;3.55;1.58;;;17.40;64.60;;;;;;5153987;27;20042;-70
2023/04/10 12:07:00;;;;;;;2.38;1.52;;;17.40;64.50;;;;;;5153602;27;20062;-70
2023/04/10 12:09:26;;;;;;;2.60;2.00;;;17.30;64.60;;;;;;5153790;27;20489;-70
2023/04/10 12:11:55;;;;;;;3.85;2.35;;;17.40;64.20;;;;;;5153860;27;20401;-70
2023/04/10 12:14:22;;;;;;;2.65;2.10;;;17.30;64.10;;;;;;5154305;27;20030;-70
2023/04/10 12:16:49;;;;;;;3.00;1.90;;;17.20;64.00;;;;;;5153851;27;20046;-70
2023/04/10 12:19:16;;;;;;;2.50;1.80;;;17.30;64.10;;;;;;5154176;27;20489;-70
2023/04/10 12:21:42;;;;;;;3.00;2.00;;;17.20;63.80;;;;;;5154125;27;20045;-70
2023/04/10 12:24:08;;;;;;;2.10;1.80;;;17.30;63.60;;;;;;5154033;27;20425;-70
2023/04/10 12:26:34;;;;;;;3.42;2.10;;;17.30;63.50;;;;;;5154015;27;20126;-70
2023/04/10 12:29:00;;;;;;;2.83;1.90;;;17.40;63.40;;;;;;5154046;27;20041;-69
2023/04/10 12:31:35;;;;;;;3.08;1.95;;;17.30;62.90;;;;;;5153716;27;20121;-69
2023/04/10 12:34:04;;;;;;;2.38;1.73;;;17.30;63.00;;;;;;5134967;27;20393;-70
2023/04/10 12:36:33;;;;;;;1.95;1.52;;;17.40;63.20;;;;;;5153784;27;20043;-70
2023/04/10 12:39:00;;;;;;;1.50;1.30;;;17.40;63.00;;;;;;5153493;27;20037;-69
2023/04/10 12:41:31;;;;;;;1.98;1.65;;;17.50;63.10;;;;;;5153638;27;20045;-69
2023/04/10 12:44:12;;;;;;;2.20;1.60;;;17.50;62.70;;;;;;5153201;27;20049;-69
2023/04/10 12:46:39;;;;;;;2.05;1.60;;;17.50;62.50;;;;;;5153388;27;20537;-69
2023/04/10 12:49:14;;;;;;;2.15;1.60;;;17.50;62.30;;;;;;5153460;27;20167;-69
2023/04/10 12:51:46;;;;;;;1.83;1.50;;;17.60;62.10;;;;;;5153476;27;20050;-70
2023/04/10 12:54:33;;;;;;;1.80;1.50;;;17.60;62.20;;;;;;5153431;27;20058;-70
2023/04/10 12:57:00;;;;;;;1.85;1.48;;;17.60;62.10;;;;;;5152377;27;20030;-70
2023/04/10 12:59:26;;;;;;;1.83;1.40;;;17.50;62.30;;;;;;5151823;27;20050;-70